createdAt,value
2022-12-31T07:34:34.812Z,101274.78
2022-12-31T07:40:12.195Z,101279.69
2022-12-31T07:45:24.424Z,101272.53
2022-12-31T07:50:26.777Z,101290.34
2022-12-31T07:55:28.965Z,101281.81
2022-12-31T08:00:31.343Z,101282.72
2022-12-31T08:06:07.790Z,101291.75
2022-12-31T08:11:28.823Z,101300.47
2022-12-31T08:16:31.297Z,101312.31
2022-12-31T08:21:43.722Z,101306.22
2022-12-31T08:26:58.790Z,101326.09
2022-12-31T08:32:06.971Z,101314.09
2022-12-31T08:37:16.947Z,101351.81
2022-12-31T08:43:06.597Z,101355.84
2022-12-31T08:48:26.732Z,101346.38
2022-12-31T08:53:29.112Z,101350.81
2022-12-31T08:58:44.895Z,101378.97
2022-12-31T09:03:59.166Z,101377.50
2022-12-31T09:09:16.545Z,101372.03
2022-12-31T09:14:18.597Z,101377.69
2022-12-31T09:19:20.767Z,101361.12
2022-12-31T09:24:23.182Z,101360.56
2022-12-31T09:29:41.550Z,101359.53
2022-12-31T09:35:12.986Z,101357.00
2022-12-31T09:40:54.458Z,101343.91
2022-12-31T09:46:02.424Z,101332.50
2022-12-31T09:51:29.621Z,101331.78
2022-12-31T09:57:17.704Z,101316.88
2022-12-31T10:02:41.251Z,101304.41
2022-12-31T10:08:12.765Z,101301.78
2022-12-31T10:13:27.387Z,101291.22
2022-12-31T10:18:44.350Z,101290.47
2022-12-31T10:24:13.826Z,101305.19
2022-12-31T10:29:48.103Z,101291.50
2022-12-31T10:35:15.086Z,101287.38
2022-12-31T10:40:41.921Z,101298.59
2022-12-31T10:46:33.567Z,101292.56
2022-12-31T10:51:44.557Z,101308.13
2022-12-31T10:57:17.625Z,101299.81
2022-12-31T11:02:57.510Z,101299.59
2022-12-31T11:08:14.677Z,101283.22
2022-12-31T11:13:28.899Z,101289.03
2022-12-31T11:18:42.153Z,101295.25
2022-12-31T11:24:23.032Z,101279.91
2022-12-31T11:29:54.128Z,101277.00
2022-12-31T11:35:15.007Z,101280.31
2022-12-31T11:40:54.273Z,101291.75
2022-12-31T11:45:59.375Z,101282.41
2022-12-31T11:51:36.168Z,101272.62
2022-12-31T11:56:41.703Z,101262.03
2022-12-31T12:01:43.747Z,101250.81
2022-12-31T12:06:46.115Z,101281.50
2022-12-31T12:12:00.134Z,101292.28
2022-12-31T12:17:06.753Z,101287.75
2022-12-31T12:22:35.072Z,101291.28
2022-12-31T12:27:37.260Z,101305.97
2022-12-31T12:32:39.371Z,101292.53
2022-12-31T12:37:41.448Z,101291.37
2022-12-31T12:42:48.466Z,101274.34
2022-12-31T12:47:56.640Z,101283.81
2022-12-31T12:53:17.245Z,101274.00
2022-12-31T12:58:42.119Z,101270.16
2022-12-31T13:04:33.900Z,101282.81
2022-12-31T13:09:58.038Z,101282.31
2022-12-31T13:15:18.534Z,101275.53
2022-12-31T13:20:39.291Z,101258.50
2022-12-31T13:26:03.080Z,101275.81
2022-12-31T13:31:09.579Z,101303.66
2022-12-31T13:36:18.730Z,101287.69
2022-12-31T13:41:33.297Z,101283.19
2022-12-31T13:46:51.901Z,101276.91
2022-12-31T13:52:27.658Z,101266.34
2022-12-31T13:57:36.805Z,101290.22
2022-12-31T14:03:05.172Z,101314.94
2022-12-31T14:08:07.725Z,101300.84
2022-12-31T14:13:09.740Z,101295.19
2022-12-31T14:18:33.146Z,101318.69
2022-12-31T14:23:56.777Z,101301.03
2022-12-31T14:29:11.257Z,101301.66
2022-12-31T14:34:30.060Z,101314.34
2022-12-31T14:40:07.764Z,101314.94
2022-12-31T14:45:28.598Z,101308.75
2022-12-31T14:50:33.909Z,101294.63
2022-12-31T14:55:38.920Z,101289.22
2022-12-31T15:00:53.368Z,101298.19
2022-12-31T15:06:29.091Z,101294.66
2022-12-31T15:11:55.908Z,101304.41
2022-12-31T15:17:34.528Z,101289.06
2022-12-31T15:22:53.756Z,101309.19
2022-12-31T15:27:58.827Z,101322.28
2022-12-31T15:33:05.159Z,101324.16
2022-12-31T15:38:13.061Z,101311.47
2022-12-31T15:43:29.299Z,101317.06
2022-12-31T15:49:03.492Z,101341.59
2022-12-31T15:54:16.301Z,101351.34
2022-12-31T15:59:20.500Z,101338.72
2022-12-31T16:04:32.615Z,101329.34
2022-12-31T16:09:35.950Z,101308.56
2022-12-31T16:14:43.677Z,101319.56
2022-12-31T16:19:48.715Z,101320.41
2022-12-31T16:25:29.607Z,101341.59
2022-12-31T16:30:22.852Z,101326.62
2022-12-31T16:35:29.848Z,101314.38
2022-12-31T16:40:31.953Z,101316.88
2022-12-31T16:45:36.492Z,101316.44
2022-12-31T16:50:38.670Z,101341.94
2022-12-31T16:55:41.328Z,101341.09
2022-12-31T17:00:44.374Z,101335.25
2022-12-31T17:06:09.341Z,101325.47
2022-12-31T17:11:23.506Z,101327.75
2022-12-31T17:16:26.241Z,101334.53
2022-12-31T17:21:31.303Z,101341.81
2022-12-31T17:26:38.236Z,101335.19
2022-12-31T17:31:57.501Z,101342.44
2022-12-31T17:37:02.591Z,101348.25
2022-12-31T17:42:04.877Z,101358.63
2022-12-31T17:47:11.802Z,101350.72
2022-12-31T17:52:15.751Z,101350.31
2022-12-31T17:57:27.568Z,101358.00
2022-12-31T18:02:29.768Z,101376.03
2022-12-31T18:07:32.068Z,101362.72
2022-12-31T18:12:35.553Z,101341.03
2022-12-31T18:17:37.623Z,101348.13
2022-12-31T18:22:41.369Z,101341.47
2022-12-31T18:27:43.467Z,101359.41
2022-12-31T18:32:46.021Z,101379.94
2022-12-31T18:37:49.303Z,101374.75
2022-12-31T18:42:51.399Z,101383.00
2022-12-31T18:47:55.620Z,101382.41
2022-12-31T18:52:57.712Z,101392.59
2022-12-31T18:57:59.830Z,101397.97
2022-12-31T19:03:02.361Z,101403.97
2022-12-31T19:08:04.668Z,101394.84
2022-12-31T19:13:06.779Z,101388.12
2022-12-31T19:18:09.661Z,101386.88
2022-12-31T19:23:21.521Z,101395.78
2022-12-31T19:28:25.946Z,101382.66
2022-12-31T19:33:28.106Z,101387.22
2022-12-31T19:38:32.175Z,101395.87
2022-12-31T19:43:34.281Z,101391.41
2022-12-31T19:48:36.371Z,101396.34
2022-12-31T19:53:38.871Z,101405.28
2022-12-31T19:58:41.360Z,101382.00
2022-12-31T20:03:43.475Z,101368.16
2022-12-31T20:08:46.589Z,101347.03
2022-12-31T20:13:50.702Z,101362.63
2022-12-31T20:18:52.862Z,101353.66
2022-12-31T20:23:55.690Z,101375.59
2022-12-31T20:28:57.753Z,101356.00
2022-12-31T20:33:59.847Z,101365.28
2022-12-31T20:39:01.909Z,101370.97
2022-12-31T20:44:04.247Z,101382.53
2022-12-31T20:49:06.913Z,101379.84
2022-12-31T20:54:10.831Z,101384.31
2022-12-31T20:59:12.989Z,101378.41
2022-12-31T21:04:15.448Z,101359.34
2022-12-31T21:09:18.009Z,101359.56
2022-12-31T21:14:20.444Z,101364.56
2022-12-31T21:19:22.546Z,101369.28
2022-12-31T21:24:24.646Z,101364.47
2022-12-31T21:29:29.992Z,101378.38
2022-12-31T21:34:36.284Z,101394.91
2022-12-31T21:39:38.385Z,101394.91
2022-12-31T21:44:40.458Z,101403.81
2022-12-31T21:49:45.663Z,101411.88
2022-12-31T21:55:06.094Z,101412.03
2022-12-31T22:00:43.612Z,101405.00
2022-12-31T22:05:52.848Z,101416.59
2022-12-31T22:10:55.171Z,101411.78
2022-12-31T22:16:04.357Z,101426.44
2022-12-31T22:21:19.172Z,101413.44
2022-12-31T22:26:25.535Z,101418.00
2022-12-31T22:31:32.158Z,101404.03
2022-12-31T22:36:34.360Z,101406.87
2022-12-31T22:41:36.457Z,101410.06
2022-12-31T22:46:38.612Z,101404.75
2022-12-31T22:51:56.305Z,101390.03
2022-12-31T22:57:01.366Z,101378.47
2022-12-31T23:02:03.653Z,101393.28
2022-12-31T23:07:07.401Z,101387.38
2022-12-31T23:12:10.437Z,101389.84
2022-12-31T23:17:38.249Z,101359.19
